Aeroporto :
LOGIN :

Iscrizione | Disclaimer

   EN    FR    IT 

 










Sommario :    VFR   VFR Marginale   IFR   IFR Intensivo   IFR Molto Intensivo
Visibilità : 
Base nubi : 
>= 8 km
>= 3000ft
5 / 8 km
1000 / 3000 ft
1500m / 5 km
500 / 1000 ft
800 / 1500m
200 / 500 ft
< 800m
< 200 ft
Simboli :   Temporali  Nebbia  Neve Forte  Precipitazioni Forti  Vento > 20 kt
SIGMETs :   Varie  Temporali  Ghiacco  Turbolenza  Onda orograficha  Ceneri Vulcaniche






- Altitudine del aeroporto : 453 ft
- Codice IATA : SBK


LFRT - St Brieuc Armor

ULTIMO METAR :
  • 130930Z AUTO 33004KT 240V030 9999 FEW022 17/11 Q1015

METARs OBSOLETI :
  • 130900Z AUTO 27004KT 220V300 9999 BKN020 BKN027 BKN033 16/11 Q1015
  • 130830Z AUTO 25004KT 9999 FEW017 16/14 Q1015
  • 130800Z AUTO 27005KT 230V310 9999 FEW010 15/14 Q1016
  • 130730Z AUTO 25006KT 9999 FEW009 15/14 Q1016
  • 130700Z AUTO 25008KT 9999 SCT007 13/13 Q1016
  • 130630Z AUTO 26006KT 9999 BKN006 13/13 Q1016
  • 130600Z AUTO 26003KT 9999 BKN007 BKN019 12/12 Q1016
  • 130530Z AUTO 26005KT 9999 OVC005 12/11 Q1016
  • 130500Z AUTO 25007KT 6000 OVC003 11/11 Q1016

Previsioni scadute.



MetMap, La meteo Aeronautica in un colpo d'occhio ! - Copyright ORBIFLY Dicembre 2007 - Disclaimer

ORBIFLY MET'MAP TEAM :

Programmazione e sviluppo : Alexandra Zaïnal
Concezione : Baudouin d'Aumeries
Supporto tecnico e logistico : Manuel Goepfert
Aiuto : Marc-Olivier Méhu
Aiuto per la traduzione : Arnaldo La Scala




FONTI E CREDITI :

   NOAA